Time;durP1;ratioP1;P1;durP2;ratioP2;P2;SDS_P1;SDS_P2;PMS_P1;PMS_P2;Temp;Humidity;BMP_temperature;BMP_pressure;BME280_temperature;BME280_humidity;BME280_pressure;Samples;Min_cycle;Max_cycle;Signal;HPM_P1;HPM_P2
2022/04/17 00:01:37;;;;;;;17.65;10.52;;;8.20;75.90;;;6.14;64.27;102042.94;5013857;28;20054;-79
2022/04/17 00:04:05;;;;;;;18.15;10.00;;;8.10;76.10;;;6.05;64.67;102038.22;5031780;28;20494;-79
2022/04/17 00:06:34;;;;;;;18.98;11.05;;;8.10;76.10;;;5.96;64.83;102042.50;5031485;28;20271;-79
2022/04/17 00:09:01;;;;;;;16.95;10.00;;;8.10;76.10;;;6.01;64.61;102039.44;5031648;28;20433;-79
2022/04/17 00:11:28;;;;;;;17.42;11.18;;;8.00;76.20;;;6.00;64.69;102035.88;5031028;28;20048;-79
2022/04/17 00:13:56;;;;;;;20.73;11.45;;;8.00;76.40;;;6.01;64.87;102036.75;5013670;28;20045;-79
2022/04/17 00:16:23;;;;;;;23.27;11.00;;;8.00;76.60;;;6.00;65.27;102035.03;5031276;28;20045;-79
2022/04/17 00:18:50;;;;;;;21.23;11.07;;;8.00;76.70;;;5.95;65.12;102035.38;5031510;28;20438;-79
2022/04/17 00:21:17;;;;;;;21.30;12.23;;;7.90;76.50;;;6.00;65.42;102032.31;5031203;28;20041;-79
2022/04/17 00:23:46;;;;;;;17.80;11.85;;;7.90;76.90;;;6.00;64.82;102035.03;5031355;28;20038;-79
2022/04/17 00:26:13;;;;;;;19.33;11.98;;;7.90;76.70;;;5.93;65.04;102022.94;5031229;28;20490;-79
2022/04/17 00:28:40;;;;;;;20.45;11.77;;;7.90;76.50;;;5.91;64.98;102019.47;5031429;28;20049;-79
2022/04/17 00:31:08;;;;;;;20.85;12.40;;;7.90;76.80;;;5.91;65.03;102019.47;5030986;28;20508;-79
2022/04/17 00:33:35;;;;;;;20.00;11.90;;;7.80;76.60;;;5.88;65.05;102016.03;5031391;28;20553;-79
2022/04/17 00:36:03;;;;;;;19.98;12.30;;;7.80;76.70;;;5.86;65.37;102018.00;5031124;28;20056;-79
2022/04/17 00:38:30;;;;;;;21.17;12.57;;;7.80;76.60;;;5.85;65.07;102010.84;5031172;28;20139;-79
2022/04/17 00:40:58;;;;;;;19.60;12.00;;;7.80;76.50;;;5.82;65.09;102008.38;5030761;28;20045;-79
2022/04/17 00:43:27;;;;;;;20.55;12.00;;;7.80;76.70;;;5.78;65.69;102001.50;5031169;28;20047;-79
2022/04/17 00:45:54;;;;;;;19.25;11.65;;;7.80;76.80;;;5.85;65.83;102000.06;5030452;28;20490;-79
2022/04/17 00:48:22;;;;;;;20.83;11.15;;;7.80;77.20;;;5.83;65.83;102002.00;5030962;28;20445;-79
2022/04/17 00:50:53;;;;;;;20.88;11.85;;;7.80;77.10;;;5.80;65.73;101999.53;5012433;28;20052;-79
2022/04/17 00:53:21;;;;;;;;;;;7.80;77.20;;;5.79;65.90;102000.53;5031221;28;20512;-79
2022/04/17 00:55:49;;;;;;;18.50;12.00;;;7.70;77.20;;;5.73;65.93;101997.41;5030499;28;19928;-79
2022/04/17 00:58:18;;;;;;;20.27;11.93;;;7.70;77.30;;;5.66;66.55;101997.03;5030723;28;20143;-79
2022/04/17 01:00:45;;;;;;;20.85;11.88;;;7.70;77.90;;;5.59;67.04;101999.31;5030358;28;20041;-79
2022/04/17 01:03:14;;;;;;;24.42;13.52;;;7.70;78.10;;;5.53;66.92;101999.78;5030957;28;20084;-79
2022/04/17 01:05:43;;;;;;;20.35;11.57;;;7.60;77.80;;;5.52;67.12;102006.19;5030962;28;20047;-79
2022/04/17 01:08:11;;;;;;;21.02;11.93;;;7.60;78.00;;;5.53;66.98;101996.22;5030420;28;20053;-79
2022/04/17 01:10:39;;;;;;;19.80;11.77;;;7.60;77.90;;;5.51;67.64;101990.09;5030312;28;20042;-79
2022/04/17 01:13:08;;;;;;;22.52;12.32;;;7.50;78.40;;;5.47;67.21;101990.31;5030568;28;20070;-79
2022/04/17 01:15:37;;;;;;;20.23;12.68;;;7.50;78.50;;;5.44;67.58;101985.13;5030350;28;20050;-79
2022/04/17 01:18:05;;;;;;;18.52;12.48;;;7.50;78.40;;;5.47;67.32;101981.34;5030050;28;20041;-79
2022/04/17 01:20:32;;;;;;;21.50;13.07;;;7.50;78.30;;;5.45;67.26;101988.72;5030033;28;20045;-79
2022/04/17 01:28:26;;;;;;;17.17;11.20;;;7.40;78.70;;;5.45;67.44;101989.56;5010181;28;19921;-79
2022/04/17 01:30:54;;;;;;;17.88;10.88;;;7.40;78.60;;;5.47;67.47;101990.31;5009986;28;20276;-79
2022/04/17 01:33:22;;;;;;;16.70;10.40;;;7.40;79.00;;;5.48;67.20;101992.03;5010296;28;20069;-79
2022/04/17 01:35:50;;;;;;;18.08;10.38;;;7.40;78.60;;;5.49;66.83;101987.50;5009747;28;20435;-79
2022/04/17 01:38:19;;;;;;;18.30;10.63;;;7.40;78.10;;;5.51;67.01;101990.09;5010258;28;20121;-79
2022/04/17 01:40:46;;;;;;;18.83;10.30;;;7.40;78.60;;;5.45;66.65;101989.56;5009835;28;20046;-79
2022/04/17 01:43:13;;;;;;;17.83;10.00;;;7.40;78.20;;;5.51;66.78;101990.09;5010145;28;20050;-79
2022/04/17 01:45:41;;;;;;;16.52;9.38;;;7.40;78.20;;;5.46;66.66;101976.91;5010408;28;20052;-78
2022/04/17 01:48:08;;;;;;;17.17;9.52;;;7.40;78.00;;;5.49;66.35;101977.56;5009872;28;20046;-79
2022/04/17 01:50:35;;;;;;;14.00;8.25;;;7.40;77.60;;;5.52;66.73;101978.28;5008170;28;20514;-79
2022/04/17 01:53:03;;;;;;;13.43;7.93;;;7.40;78.00;;;5.58;66.32;101972.41;5010033;28;20048;-79
2022/04/17 01:55:32;;;;;;;10.95;6.68;;;7.50;77.80;;;5.60;66.08;101973.19;5008607;28;20057;-79
2022/04/17 01:57:59;;;;;;;13.25;6.40;;;7.50;77.40;;;5.60;65.47;101979.44;5009652;28;20473;-79
2022/04/17 02:00:27;;;;;;;10.90;6.97;;;7.50;76.60;;;5.57;65.74;101974.28;5009488;28;20054;-79
2022/04/17 02:02:54;;;;;;;11.10;6.68;;;7.50;77.10;;;5.58;65.83;101975.13;5009797;28;20510;-79
2022/04/17 02:05:21;;;;;;;11.40;7.10;;;7.50;77.50;;;5.57;66.11;101971.56;5009319;28;20054;-79
2022/04/17 02:07:48;;;;;;;13.52;6.90;;;7.50;77.90;;;5.59;65.49;101966.91;5009556;28;20612;-79
2022/04/17 02:10:19;;;;;;;9.70;5.25;;;7.50;77.70;;;5.67;65.34;101969.03;5009471;28;20777;-79
2022/04/17 02:12:49;;;;;;;8.40;4.85;;;7.60;76.60;;;5.75;65.39;101968.44;5009969;28;20053;-79
2022/04/17 02:15:16;;;;;;;8.05;4.50;;;7.70;76.00;;;5.77;65.34;101967.38;5009820;28;20045;-79
2022/04/17 02:17:43;;;;;;;9.45;5.40;;;7.70;76.20;;;5.80;65.62;101959.00;5009641;28;20053;-79
2022/04/17 02:20:12;;;;;;;8.57;5.18;;;7.70;75.90;;;5.82;64.95;101961.59;5009548;28;20128;-79
2022/04/17 02:22:40;;;;;;;7.70;4.68;;;7.70;75.90;;;5.90;64.54;101959.16;5009747;28;20053;-79
2022/04/17 02:25:08;;;;;;;9.15;4.70;;;7.80;74.90;;;5.92;64.25;101962.63;5009556;28;20042;-79
2022/04/17 02:27:36;;;;;;;9.48;4.70;;;7.80;75.10;;;5.97;64.53;101956.88;5009304;28;20541;-79
2022/04/17 02:30:06;;;;;;;8.13;4.25;;;7.90;75.10;;;6.04;64.39;101950.03;5009038;28;20125;-79
2022/04/17 02:32:33;;;;;;;8.75;4.60;;;7.90;74.60;;;6.05;64.42;101949.91;5009353;28;20429;-79
2022/04/17 02:35:00;;;;;;;7.25;4.35;;;8.00;74.90;;;6.08;64.32;101940.69;5009617;28;20494;-79
2022/04/17 02:37:28;;;;;;;8.07;4.20;;;8.00;75.10;;;6.10;64.32;101943.28;5009198;28;20141;-79
2022/04/17 02:39:57;;;;;;;8.63;4.38;;;8.00;75.00;;;6.11;63.99;101942.28;5009127;28;20046;-79
2022/04/17 02:42:24;;;;;;;7.82;4.57;;;8.00;74.60;;;6.15;63.76;101946.47;5007945;28;20061;-79
2022/04/17 02:44:51;;;;;;;6.45;4.07;;;8.10;74.40;;;6.14;64.36;101945.63;5009473;28;20776;-79
2022/04/17 02:50:05;;;;;;;7.07;4.25;;;8.10;75.20;;;6.14;63.73;101940.22;5009048;28;20061;-79
2022/04/17 02:52:32;;;;;;;7.28;3.70;;;8.10;74.80;;;6.19;63.61;101946.13;5009543;28;20523;-79
2022/04/17 02:55:00;;;;;;;8.77;4.03;;;8.10;74.30;;;6.21;64.43;101941.47;5009254;28;20045;-79
2022/04/17 02:57:28;;;;;;;7.97;4.13;;;8.10;74.80;;;6.20;63.93;101939.72;5009135;28;20046;-79
2022/04/17 02:59:55;;;;;;;6.97;4.13;;;8.10;74.90;;;6.19;63.95;101946.13;5008993;28;20073;-79
2022/04/17 03:05:38;;;;;;;7.10;4.25;;;8.10;75.40;;;6.18;64.44;101935.44;4967451;28;20058;-78
2022/04/17 03:08:07;;;;;;;7.40;3.63;;;8.10;75.70;;;6.20;64.12;101936.16;5003917;28;20058;-79
2022/04/17 03:10:36;;;;;;;6.35;3.70;;;8.10;75.10;;;6.26;63.79;101938.38;5008688;28;20100;-79
2022/04/17 03:13:04;;;;;;;7.63;3.80;;;8.20;74.80;;;6.25;63.74;101945.63;5009441;28;20415;-79
2022/04/17 03:15:31;;;;;;;6.43;3.72;;;8.20;74.80;;;6.23;63.79;101944.91;5009268;28;20049;-79
2022/04/17 03:18:00;;;;;;;8.20;3.45;;;8.10;75.30;;;6.20;64.10;101930.75;5010199;28;20041;-79
2022/04/17 03:20:28;;;;;;;7.30;3.50;;;8.10;75.40;;;6.20;64.25;101928.91;5012193;28;20409;-79
2022/04/17 03:22:55;;;;;;;7.53;4.10;;;8.10;75.40;;;6.23;63.89;101933.22;5012729;28;20053;-79
2022/04/17 03:25:22;;;;;;;5.85;3.60;;;8.10;75.00;;;6.21;64.08;101935.19;5012496;28;20042;-79
2022/04/17 03:27:50;;;;;;;7.63;3.47;;;8.20;75.20;;;6.26;63.62;101928.44;5012245;28;20466;-79
2022/04/17 03:30:18;;;;;;;6.82;3.50;;;8.20;74.40;;;6.30;63.71;101929.03;5012026;28;20077;-79
2022/04/17 03:32:49;;;;;;;7.85;3.83;;;8.20;74.40;;;6.32;63.72;101920.81;5012792;28;20057;-79
2022/04/17 03:35:19;;;;;;;7.13;3.85;;;8.20;74.70;;;6.34;63.24;101924.25;5012607;28;20855;-79
2022/04/17 03:37:47;;;;;;;7.75;3.53;;;8.20;74.30;;;6.38;63.34;101928.47;5011981;28;20049;-79
2022/04/17 03:40:16;;;;;;;7.10;3.47;;;8.30;74.40;;;6.44;63.29;101925.25;5012003;28;20042;-79
2022/04/17 03:42:44;;;;;;;6.20;3.22;;;8.30;74.00;;;6.46;63.58;101928.69;5012272;28;20115;-79
2022/04/17 03:45:14;;;;;;;7.05;3.47;;;8.40;74.40;;;6.44;63.61;101927.97;5012221;28;20046;-79
2022/04/17 03:47:42;;;;;;;4.82;2.78;;;8.40;74.30;;;6.44;63.41;101936.06;5010500;28;20058;-79
2022/04/17 03:50:11;;;;;;;8.55;3.90;;;8.40;74.20;;;6.42;63.67;101932.63;5011772;28;20719;-79
2022/04/17 03:52:41;;;;;;;8.23;3.92;;;8.40;74.60;;;6.38;63.85;101925.75;5012105;28;20668;-79
2022/04/17 03:55:10;;;;;;;8.48;3.40;;;8.40;74.60;;;6.43;63.81;101927.06;5012046;28;20073;-79
2022/04/17 03:57:37;;;;;;;6.35;3.20;;;8.40;74.20;;;6.45;63.40;101924.25;5011620;28;20046;-79
2022/04/17 04:00:07;;;;;;;5.20;3.17;;;8.40;74.30;;;6.45;63.29;101922.44;5011562;28;20081;-79
2022/04/17 04:02:41;;;;;;;6.15;3.20;;;8.30;74.60;;;6.42;63.08;101922.66;5012042;28;20096;-79
2022/04/17 04:05:10;;;;;;;7.18;3.22;;;8.40;74.20;;;6.40;63.87;101921.94;5011792;28;20562;-79
2022/04/17 04:07:38;;;;;;;8.02;3.67;;;8.30;74.90;;;6.36;63.88;101922.28;5011506;28;20054;-79
2022/04/17 04:10:09;;;;;;;5.60;3.40;;;8.40;75.00;;;6.34;64.11;101916.13;5009903;28;20112;-79
2022/04/17 04:12:37;;;;;;;6.25;3.42;;;8.30;75.00;;;6.30;63.56;101911.97;5011641;28;20042;-79
2022/04/17 04:15:07;;;;;;;6.25;3.30;;;8.20;75.00;;;6.24;63.84;101903.38;5011604;28;20047;-79
2022/04/17 04:17:34;;;;;;;8.45;3.38;;;8.20;75.40;;;6.15;64.63;101904.09;5011279;28;20041;-79
2022/04/17 04:20:02;;;;;;;5.32;3.00;;;8.10;75.60;;;6.16;64.22;101899.56;5011166;28;20525;-79
2022/04/17 04:22:29;;;;;;;6.43;3.25;;;8.10;75.60;;;6.17;64.26;101893.16;5011394;28;20042;-79
2022/04/17 04:24:56;;;;;;;6.97;3.40;;;8.10;75.60;;;6.15;64.28;101887.00;5011371;28;20137;-79
2022/04/17 04:30:11;;;;;;;6.22;3.20;;;8.10;75.70;;;6.17;63.54;101894.03;5010834;28;20041;-79
2022/04/17 04:32:38;;;;;;;7.40;3.28;;;8.00;75.40;;;6.07;64.16;101884.91;5011491;28;20053;-79
2022/04/17 04:35:06;;;;;;;6.55;3.20;;;8.00;75.40;;;6.04;64.42;101886.03;5011486;28;20129;-79
2022/04/17 04:37:34;;;;;;;6.63;3.70;;;8.00;75.90;;;6.06;64.85;101888.63;5011137;28;20049;-79
2022/04/17 04:40:01;;;;;;;7.28;3.65;;;8.00;76.40;;;5.99;64.73;101899.03;5010915;28;20498;-79
2022/04/17 04:42:30;;;;;;;8.10;3.60;;;7.90;76.60;;;5.96;64.73;101893.00;5009739;28;20136;-79
2022/04/17 04:47:45;;;;;;;8.02;3.80;;;7.90;77.60;;;6.03;65.24;101889.69;5010723;28;20073;-79
2022/04/17 04:50:12;;;;;;;6.63;3.20;;;7.90;77.60;;;6.03;65.26;101891.53;5010690;28;20069;-79
2022/04/17 04:52:39;;;;;;;5.65;3.22;;;7.90;77.30;;;6.05;64.99;101881.47;5010810;28;20057;-79
2022/04/17 04:55:07;;;;;;;7.75;3.50;;;7.90;77.30;;;6.09;65.15;101882.94;5009773;28;20054;-78
2022/04/17 04:57:38;;;;;;;6.30;2.88;;;7.90;77.20;;;6.20;64.56;101891.06;5010744;28;20049;-79
2022/04/17 05:00:08;;;;;;;7.50;2.90;;;8.00;76.40;;;6.28;64.75;101882.34;5010486;28;20100;-79
2022/04/17 05:02:37;;;;;;;6.57;3.13;;;8.00;76.00;;;6.36;64.01;101889.84;5011163;28;20038;-79
2022/04/17 05:05:06;;;;;;;7.05;3.00;;;8.10;75.90;;;6.44;64.59;101882.00;5010968;28;20044;-79
2022/04/17 05:07:33;;;;;;;6.95;3.10;;;8.20;75.80;;;6.49;63.84;101885.16;5010615;28;20059;-79
2022/04/17 05:10:00;;;;;;;6.03;2.80;;;8.30;75.40;;;6.56;63.16;101886.38;5010533;28;20046;-79
2022/04/17 05:12:28;;;;;;;5.13;2.78;;;8.40;74.90;;;6.62;63.46;101890.44;5010767;28;20050;-79
2022/04/17 05:14:56;;;;;;;4.68;2.58;;;8.50;74.80;;;6.68;63.35;101886.38;5010786;28;20042;-79
2022/04/17 05:17:24;;;;;;;5.15;2.47;;;8.50;75.30;;;6.75;63.49;101876.78;5010378;28;20045;-79
2022/04/17 05:19:51;;;;;;;6.93;2.97;;;8.50;74.50;;;6.82;63.46;101884.25;5010093;28;20060;-79
2022/04/17 05:22:20;;;;;;;6.07;2.83;;;8.60;74.80;;;6.88;62.80;101880.19;5010284;28;20081;-79
2022/04/17 05:24:48;;;;;;;5.22;2.80;;;8.70;74.20;;;6.96;63.13;101882.25;5010347;28;20053;-79
2022/04/17 05:27:15;;;;;;;5.20;2.92;;;8.70;74.10;;;7.04;62.75;101886.06;5010051;28;20122;-79
2022/04/17 05:29:42;;;;;;;7.78;2.45;;;8.80;74.30;;;7.11;63.18;101886.41;5008657;28;20490;-79
2022/04/17 05:32:11;;;;;;;4.93;2.60;;;8.90;74.80;;;7.20;61.99;101890.19;5010206;28;20038;-79
2022/04/17 05:34:38;;;;;;;5.43;2.05;;;8.90;72.80;;;7.30;61.64;101885.72;5010311;28;20053;-78
2022/04/17 05:37:07;;;;;;;5.05;2.42;;;9.00;73.30;;;7.40;62.16;101892.06;5009986;28;20077;-79
2022/04/17 05:39:34;;;;;;;5.68;2.80;;;9.10;73.00;;;7.48;60.39;101888.69;5009631;28;20054;-79
2022/04/17 05:42:01;;;;;;;5.25;2.65;;;9.20;73.00;;;7.55;60.52;101895.31;5009693;28;20061;-79
2022/04/17 05:44:29;;;;;;;6.38;2.65;;;9.20;71.80;;;7.64;61.02;101899.09;5010187;28;20103;-79
2022/04/17 05:47:09;;;;;;;5.00;2.28;;;9.30;72.10;;;7.74;60.63;101900.03;5010191;28;20073;-79
2022/04/17 05:49:45;;;;;;;6.10;2.63;;;9.40;72.60;;;7.82;61.36;101899.34;5010162;28;20053;-79
2022/04/17 05:52:14;;;;;;;5.55;2.58;;;9.50;72.60;;;7.86;60.14;101897.25;5010209;28;20052;-79
2022/04/17 05:54:49;;;;;;;5.15;2.60;;;9.50;72.10;;;7.94;60.77;101903.72;5010123;28;20068;-79
2022/04/17 05:57:20;;;;;;;5.25;2.83;;;9.60;71.50;;;7.97;59.92;101897.16;5009557;28;20116;-79
2022/04/17 05:59:54;;;;;;;6.43;2.67;;;9.60;71.40;;;8.05;60.98;101901.94;5009627;28;20050;-79
2022/04/17 06:02:21;;;;;;;5.82;2.67;;;9.70;72.30;;;8.09;59.56;101901.53;5009854;28;20049;-79
2022/04/17 06:04:50;;;;;;;5.65;2.72;;;9.70;71.20;;;8.14;59.71;101901.97;5009793;28;20050;-79
2022/04/17 06:07:27;;;;;;;5.28;2.80;;;9.80;71.10;;;8.16;59.71;101897.28;5009511;28;20128;-79
2022/04/17 06:09:54;;;;;;;6.88;2.80;;;9.80;71.50;;;8.25;59.35;101902.91;5009545;28;20433;-79
2022/04/17 06:12:21;;;;;;;5.80;2.47;;;9.80;71.10;;;8.32;60.11;101901.34;5008577;28;20085;-79
2022/04/17 06:14:48;;;;;;;6.03;2.83;;;9.90;71.70;;;8.41;59.46;101908.66;5010141;28;20050;-79
2022/04/17 06:17:17;;;;;;;4.47;2.38;;;9.90;70.50;;;8.48;58.52;101893.59;5025104;28;20053;-79
2022/04/17 06:19:44;;;;;;;4.72;2.50;;;10.00;69.80;;;8.55;57.97;101894.78;5010127;28;20050;-80
2022/04/17 06:22:13;;;;;;;6.15;2.03;;;10.10;69.90;;;8.71;57.80;101896.97;5010319;28;20054;-80
2022/04/17 06:24:41;;;;;;;5.53;2.67;;;10.20;69.40;;;8.81;57.13;101894.28;5010103;28;20044;-80
2022/04/17 06:27:08;;;;;;;6.68;2.40;;;10.20;69.00;;;8.84;57.28;101883.16;5009700;28;20060;-80
2022/04/17 06:29:38;;;;;;;9.73;2.70;;;10.30;69.10;;;8.89;57.70;101886.31;5009482;28;20049;-80
2022/04/17 06:32:07;;;;;;;6.13;2.97;;;10.40;68.60;;;9.08;56.88;101880.06;5009419;28;20038;-79
2022/04/17 06:34:34;;;;;;;5.20;2.30;;;10.40;68.80;;;9.53;57.36;101875.91;5009377;28;20050;-80
2022/04/17 06:37:04;;;;;;;5.20;2.20;;;10.60;68.90;;;9.94;56.19;101871.13;5009166;28;20070;-80
2022/04/17 06:39:32;;;;;;;5.45;2.70;;;10.70;68.70;;;10.29;55.12;101875.00;5009507;28;20042;-79
2022/04/17 06:42:03;;;;;;;3.53;1.98;;;10.80;66.90;;;10.46;54.06;101865.22;5009135;28;20046;-80
2022/04/17 06:44:32;;;;;;;4.78;2.08;;;10.90;67.50;;;10.54;53.66;101868.91;5009623;28;20117;-80
2022/04/17 06:47:00;;;;;;;6.22;2.47;;;11.00;67.40;;;10.61;52.84;101868.31;5009134;28;20104;-80
2022/04/17 06:49:28;;;;;;;4.28;2.17;;;11.10;66.80;;;10.56;53.05;101871.47;5009437;28;20054;-80
2022/04/17 06:51:57;;;;;;;4.13;2.10;;;11.20;66.00;;;10.53;52.75;101869.91;5010331;28;20042;-80
2022/04/17 06:54:24;;;;;;;4.55;2.38;;;11.30;66.30;;;10.52;51.80;101860.03;5013127;28;20046;-80
2022/04/17 06:56:53;;;;;;;4.80;2.28;;;11.40;64.40;;;10.58;52.37;101853.13;5013009;28;20534;-79
2022/04/17 06:59:25;;;;;;;6.82;2.25;;;11.40;65.10;;;10.64;52.03;101846.22;5013153;28;20062;-80
2022/04/17 07:01:53;;;;;;;5.88;1.98;;;11.60;64.80;;;10.73;52.35;101845.31;5012657;28;20652;-79
2022/04/17 07:04:20;;;;;;;4.32;2.20;;;11.70;65.00;;;10.81;52.18;101848.09;5011464;28;20093;-79
2022/04/17 07:06:47;;;;;;;4.25;2.30;;;11.80;65.00;;;10.88;51.33;101851.09;5012718;28;20062;-79
2022/04/17 07:09:14;;;;;;;4.82;2.00;;;11.90;64.40;;;10.92;52.26;101847.88;5011426;28;20160;-79
2022/04/17 07:11:41;;;;;;;8.52;2.47;;;11.90;64.70;;;11.02;51.87;101850.53;5012347;28;20044;-79
2022/04/17 07:14:14;;;;;;;4.20;1.80;;;12.00;64.80;;;11.13;52.21;101853.03;5012789;28;20048;-79
2022/04/17 07:16:42;;;;;;;6.25;2.03;;;12.10;65.00;;;11.20;51.31;101857.88;5012477;28;20053;-79
2022/04/17 07:19:09;;;;;;;4.32;1.90;;;12.20;63.30;;;11.28;51.66;101850.63;5012703;28;20053;-79
2022/04/17 07:21:37;;;;;;;4.75;2.08;;;12.20;64.60;;;11.38;51.28;101841.53;5012189;28;20038;-79
2022/04/17 07:24:05;;;;;;;5.90;2.08;;;12.30;63.90;;;11.46;50.80;101836.13;5026136;22;20046;-80
2022/04/17 07:26:33;;;;;;;6.63;2.38;;;12.40;64.00;;;11.55;50.34;101837.91;5012909;28;20514;-80
2022/04/17 07:29:00;;;;;;;4.68;2.17;;;12.50;62.60;;;11.58;50.13;101839.47;5013086;28;20056;-80
2022/04/17 07:31:28;;;;;;;5.65;2.47;;;12.50;62.30;;;11.63;50.04;101835.25;5012335;28;20049;-80
2022/04/17 07:33:56;;;;;;;4.65;2.10;;;12.60;62.60;;;11.72;49.24;101831.56;5012840;28;20056;-80
2022/04/17 07:36:23;;;;;;;5.93;2.55;;;12.60;61.10;;;11.78;49.60;101834.66;5012324;28;20046;-79
2022/04/17 07:38:50;;;;;;;6.63;2.38;;;12.70;61.70;;;11.84;49.63;101834.00;5012750;28;20524;-80
2022/04/17 07:41:17;;;;;;;4.65;1.90;;;12.70;61.80;;;11.89;49.02;101837.13;5012089;28;20046;-77
2022/04/17 07:43:44;;;;;;;5.28;2.30;;;12.80;60.90;;;11.98;49.35;101829.91;5012272;28;20038;-78
2022/04/17 07:46:11;;;;;;;4.57;2.25;;;12.90;61.90;;;12.04;49.02;101824.63;5012119;28;20405;-78
2022/04/17 07:48:40;;;;;;;4.55;1.92;;;12.90;61.10;;;12.10;49.21;101823.97;5012266;28;20396;-77
2022/04/17 07:51:07;;;;;;;4.93;2.00;;;13.00;61.90;;;12.18;49.90;101819.59;5012142;28;20050;-77
2022/04/17 07:53:34;;;;;;;4.00;2.20;;;13.10;62.80;;;12.22;49.01;101820.97;5012278;28;20116;-77
2022/04/17 07:56:02;;;;;;;4.18;2.10;;;13.10;61.50;;;12.32;49.47;101833.47;5011814;28;20045;-78
2022/04/17 07:58:34;;;;;;;3.80;1.90;;;13.20;62.10;;;12.38;49.02;101831.97;5012347;28;20049;-78
2022/04/17 08:01:10;;;;;;;6.93;1.90;;;13.30;61.70;;;12.44;48.22;101830.47;5011962;28;20045;-78
2022/04/17 08:03:47;;;;;;;5.13;1.95;;;13.30;59.40;;;12.49;48.62;101828.09;5011471;28;20102;-78
2022/04/17 08:06:20;;;;;;;3.65;1.75;;;13.40;60.90;;;12.58;48.31;101829.81;5011868;28;20049;-78
2022/04/17 08:08:50;;;;;;;5.32;2.20;;;13.50;60.20;;;12.67;48.02;101836.16;5011991;28;20060;-78
2022/04/17 08:11:19;;;;;;;5.53;2.40;;;13.50;61.40;;;12.73;47.41;101832.75;5011618;28;20107;-77
2022/04/17 08:13:47;;;;;;;4.78;1.75;;;13.60;58.90;;;12.79;47.56;101826.63;5011721;28;20046;-78
2022/04/17 08:16:14;;;;;;;4.57;1.95;;;13.70;58.90;;;12.83;46.88;101830.75;5011595;28;20077;-78
2022/04/17 08:18:42;;;;;;;4.65;2.13;;;13.70;58.80;;;12.88;46.60;101822.03;5011888;28;20111;-77
2022/04/17 08:21:10;;;;;;;4.72;2.28;;;13.70;58.30;;;12.91;47.01;101828.03;5011382;28;20046;-78
2022/04/17 08:23:38;;;;;;;6.40;2.17;;;13.80;59.10;;;12.97;46.30;101825.66;5011722;28;20549;-78
2022/04/17 08:26:06;;;;;;;5.10;2.00;;;13.80;58.30;;;13.01;46.50;101816.09;5011494;28;20070;-78
2022/04/17 08:28:34;;;;;;;5.03;2.08;;;13.80;59.40;;;13.06;47.18;101814.56;5010262;28;20605;-77
2022/04/17 08:31:01;;;;;;;8.00;2.17;;;13.90;60.20;;;13.13;47.23;101820.19;5011260;28;20487;-77
2022/04/17 08:33:29;;;;;;;4.30;1.95;;;14.00;59.90;;;13.16;46.85;101816.28;5011502;28;20052;-78
2022/04/17 08:35:58;;;;;;;5.03;2.10;;;14.00;59.10;;;13.21;46.52;101812.03;5011239;28;20133;-77
2022/04/17 08:38:25;;;;;;;4.35;1.80;;;14.10;58.20;;;13.28;48.08;101810.28;5011521;28;20052;-78
2022/04/17 08:40:57;;;;;;;4.35;1.90;;;14.10;60.90;;;13.32;46.79;101797.19;5010992;28;20079;-78
2022/04/17 08:43:26;;;;;;;4.82;1.88;;;14.20;58.00;;;13.38;47.07;101809.31;5011619;28;20046;-78
2022/04/17 08:45:54;;;;;;;5.05;2.33;;;14.20;60.00;;;13.34;44.98;101805.22;5010841;28;20064;-78
2022/04/17 08:48:23;;;;;;;6.50;2.30;;;14.20;56.70;;;13.33;46.24;101798.91;5011354;28;20049;-78
2022/04/17 08:50:52;;;;;;;4.72;1.98;;;14.20;56.70;;;13.40;47.03;101799.06;5010922;28;20046;-78
2022/04/17 08:53:21;;;;;;;3.15;1.67;;;14.30;58.70;;;13.40;46.38;101796.31;5011024;28;20092;-78
2022/04/17 08:55:50;;;;;;;4.15;1.92;;;14.30;58.50;;;13.40;47.02;101794.47;5010752;28;20084;-78
2022/04/17 08:58:18;;;;;;;4.10;1.98;;;14.40;60.00;;;13.42;46.10;101792.41;5011213;28;20495;-78
2022/04/17 09:00:46;;;;;;;4.32;1.98;;;14.40;57.20;;;13.37;45.78;101788.47;5010678;28;20132;-78
2022/04/17 09:03:13;;;;;;;6.20;2.00;;;14.40;56.10;;;13.37;44.86;101788.47;5011117;28;20156;-78
2022/04/17 09:05:41;;;;;;;8.25;2.00;;;14.40;55.70;;;13.25;44.14;101791.53;5010986;28;20080;-78
2022/04/17 09:08:17;;;;;;;5.65;2.13;;;14.40;53.30;;;13.25;44.95;101780.59;5011160;28;20050;-78
2022/04/17 09:10:57;;;;;;;5.85;2.17;;;14.30;56.50;;;13.37;46.62;101781.13;5010627;28;20064;-78
2022/04/17 09:13:31;;;;;;;5.22;2.00;;;14.40;59.10;;;13.41;45.73;101771.53;5011155;28;20048;-79
2022/04/17 09:15:59;;;;;;;4.88;1.80;;;14.50;55.30;;;13.37;44.89;101774.81;5010498;28;20490;-79
2022/04/17 09:18:31;;;;;;;4.68;1.70;;;14.40;54.10;;;13.33;44.10;101771.56;5010575;28;20046;-79
2022/04/17 09:21:01;;;;;;;3.88;1.70;;;14.30;53.90;;;13.36;43.58;101773.09;5010210;28;20049;-79
2022/04/17 09:23:40;;;;;;;4.53;2.00;;;14.40;54.60;;;13.36;42.08;101764.88;5009608;28;20104;-79
2022/04/17 09:26:09;;;;;;;4.00;1.77;;;14.50;53.60;;;13.30;43.19;101761.78;5010245;28;20045;-79
2022/04/17 09:28:39;;;;;;;5.05;2.13;;;14.50;53.60;;;13.27;42.34;101756.66;5010531;28;20046;-79
2022/04/17 09:31:12;;;;;;;3.50;1.80;;;14.40;52.60;;;13.26;41.92;101752.19;5010040;28;20129;-79
2022/04/17 09:33:42;;;;;;;4.85;2.10;;;14.40;53.00;;;13.23;42.62;101749.84;5010523;28;20569;-79
2022/04/17 09:36:09;;;;;;;5.28;2.17;;;14.50;53.60;;;13.22;42.53;101753.56;5010506;28;20057;-79
2022/04/17 09:38:36;;;;;;;4.97;1.92;;;14.40;53.80;;;13.28;43.29;101752.03;5010554;28;20108;-79
2022/04/17 09:41:09;;;;;;;5.68;1.95;;;14.40;55.00;;;13.32;42.46;101747.97;5010111;28;20049;-79
2022/04/17 09:43:39;;;;;;;4.50;2.00;;;14.50;54.80;;;13.32;42.84;101741.66;5011002;28;20391;-79
2022/04/17 09:46:07;;;;;;;4.22;1.85;;;14.50;54.00;;;13.34;42.52;101739.59;5010035;28;20133;-79
2022/04/17 09:48:38;;;;;;;8.60;2.30;;;14.50;53.90;;;13.38;42.31;101735.47;5010425;28;20053;-78
2022/04/17 09:51:22;;;;;;;5.45;2.03;;;14.50;53.70;;;13.40;41.88;101733.41;5010052;28;20120;-79
2022/04/17 09:53:59;;;;;;;6.65;1.98;;;14.60;52.40;;;13.43;41.83;101723.00;5010143;28;20053;-78
2022/04/17 09:56:35;;;;;;;4.47;1.90;;;14.60;52.50;;;13.43;41.66;101727.63;5009874;28;20050;-79
2022/04/17 09:59:17;;;;;;;7.63;1.90;;;14.60;52.40;;;13.46;41.54;101727.25;5010101;28;20100;-79
2022/04/17 10:01:46;;;;;;;4.68;2.10;;;14.60;52.40;;;13.45;41.95;101718.19;5009857;28;20049;-79
2022/04/17 10:04:16;;;;;;;4.45;1.90;;;14.60;53.00;;;13.38;40.51;101722.66;5009875;28;20045;-79
2022/04/17 10:06:44;;;;;;;5.55;1.70;;;14.60;50.80;;;13.43;41.72;101706.59;5009626;28;20049;-79
2022/04/17 10:09:12;;;;;;;4.78;1.65;;;14.60;52.90;;;13.51;41.81;101705.72;5009996;28;20082;-79
2022/04/17 10:11:41;;;;;;;4.45;1.80;;;14.60;52.30;;;13.51;40.80;101702.97;5009701;28;20050;-79
2022/04/17 10:14:10;;;;;;;4.35;1.73;;;14.70;51.70;;;13.53;40.93;101689.13;5008594;28;20462;-79
2022/04/17 10:16:43;;;;;;;3.45;1.65;;;14.70;52.10;;;13.59;40.93;101694.75;5009686;28;20084;-79
2022/04/17 10:19:14;;;;;;;4.88;1.80;;;14.70;52.10;;;13.55;40.79;101690.66;5010139;28;20053;-79
2022/04/17 10:21:41;;;;;;;4.78;2.00;;;14.70;51.60;;;13.55;40.40;101679.72;5009731;28;20077;-80
2022/04/17 10:24:13;;;;;;;3.92;1.80;;;14.70;51.40;;;13.53;39.30;101679.03;5009968;28;20034;-79
2022/04/17 10:26:47;;;;;;;5.35;1.90;;;14.70;50.10;;;13.53;40.15;101676.31;5010907;28;20049;-79
2022/04/17 10:29:26;;;;;;;4.75;1.55;;;14.70;51.00;;;13.58;38.92;101671.16;5012343;28;20473;-79
2022/04/17 10:32:51;;;;;;;4.60;1.77;;;14.70;49.70;;;13.62;39.40;101667.03;5013472;28;20045;-79
2022/04/17 10:35:27;;;;;;;4.22;1.50;;;14.80;50.10;;;13.64;39.32;101653.19;5013886;28;20088;-79
2022/04/17 10:38:24;;;;;;;3.40;1.40;;;14.80;50.00;;;13.66;38.39;101657.44;5013268;28;20085;-79
2022/04/17 10:40:59;;;;;;;3.40;1.60;;;14.80;49.00;;;13.66;38.34;101643.78;5013210;28;20050;-79
2022/04/17 10:43:34;;;;;;;4.30;1.92;;;14.80;47.50;;;13.66;38.69;101646.50;5013907;28;20507;-79